SWR139 VHHH-LSZH
Flight info
| Callsign | SWR139 |
|---|---|
| Flight time | N/A |
| Altitude | 30100 |
| Route | BEKOL5A BEKOL A461 SHL W22 TEPID W24 OSNOV G586 QP B330 ELKAL/K0919S0980 W179 IGNAK/K0924S0950 W179 WFX/K0911S0920 W179 JTG/K0915S0980 W179 OMBON W195 VIDEK/K0924S0950 W195 LAXAL/K0915S0980 W195 IDOPA W197 ANDIM B215 IBANO/K0893S1040 G470 AKLAS W192 FKG A368 SARIN/K0880F340 N161 GILAK/K0867F360 N161 MASAV/K0874F380 N161 GASBI/N0476F380 N161 LEYLA T916 MATAL DCT TABAS DCT REBLO UM11 CRM UM688 EKSUK UL852 DEVMU/N0470F400 UL852 NEGEM DCT ANASA DCT DONIV DCT TADAM DCT PEROT DCT BEDOX DCT DIPSA DCT ERKIR DCT KPT L856 NEGRA NEGRA2A |
| Aircraft | A343/H-VGDW/C |
Departure
| Time | 2026-05-05 10:08 |
|---|---|
| Airport | Hong Kong International Airport (VHHH) |
Arrival
| Time | N/A |
|---|---|
| Airport | Zürich Airport (LSZH) |
| Time | Latitude | Longitude | Altitude | Speed | Heading |
|---|---|---|---|---|---|
| 2026-05-05 09:34 | 22.31351 | 113.93134 | 35 ft | 0 kts | 341° |
| 2026-05-05 09:45 | 22.31352 | 113.93133 | 35 ft | 1 kts | 341° |
| 2026-05-05 09:45 | 22.31355 | 113.93132 | 35 ft | 1 kts | 341° |
| 2026-05-05 09:46 | 22.31357 | 113.93131 | 35 ft | 0 kts | 341° |
| 2026-05-05 09:46 | 22.31360 | 113.93130 | 35 ft | 1 kts | 341° |
| 2026-05-05 09:46 | 22.31363 | 113.93129 | 35 ft | 0 kts | 341° |
| 2026-05-05 09:46 | 22.31366 | 113.93128 | 35 ft | 1 kts | 341° |
| 2026-05-05 09:47 | 22.31368 | 113.93127 | 35 ft | 0 kts | 341° |
| 2026-05-05 09:47 | 22.31356 | 113.93132 | 35 ft | 0 kts | 341° |
| 2026-05-05 09:47 | 22.31355 | 113.93132 | 35 ft | 0 kts | 341° |
| 2026-05-05 09:47 | 22.31354 | 113.93133 | 35 ft | 0 kts | 341° |
| 2026-05-05 09:48 | 22.31353 | 113.93133 | 35 ft | 0 kts | 341° |
| 2026-05-05 09:48 | 22.31338 | 113.93139 | 33 ft | 4 kts | 341° |
| 2026-05-05 09:48 | 22.31312 | 113.93147 | 32 ft | 4 kts | 344° |
| 2026-05-05 09:48 | 22.31289 | 113.93154 | 33 ft | 4 kts | 341° |
| 2026-05-05 09:49 | 22.31267 | 113.93167 | 33 ft | 4 kts | 302° |
| 2026-05-05 09:49 | 22.31263 | 113.93192 | 32 ft | 4 kts | 252° |
| 2026-05-05 09:49 | 22.31274 | 113.93218 | 32 ft | 4 kts | 241° |
| 2026-05-05 09:49 | 22.31283 | 113.93237 | 33 ft | 0 kts | 251° |
| 2026-05-05 09:50 | 22.31283 | 113.93238 | 33 ft | 0 kts | 251° |
| 2026-05-05 09:50 | 22.31283 | 113.93239 | 34 ft | 0 kts | 251° |
| 2026-05-05 09:50 | 22.31284 | 113.93240 | 34 ft | 0 kts | 251° |
| 2026-05-05 09:50 | 22.31284 | 113.93241 | 33 ft | 0 kts | 251° |
| 2026-05-05 09:56 | 22.31284 | 113.93240 | 35 ft | 1 kts | 251° |
| 2026-05-05 09:56 | 22.31274 | 113.93209 | 35 ft | 8 kts | 251° |
| 2026-05-05 09:56 | 22.31253 | 113.93142 | 35 ft | 9 kts | 251° |
| 2026-05-05 09:56 | 22.31233 | 113.93080 | 35 ft | 8 kts | 251° |
| 2026-05-05 09:57 | 22.31216 | 113.93026 | 35 ft | 8 kts | 251° |
| 2026-05-05 09:57 | 22.31196 | 113.92965 | 35 ft | 10 kts | 251° |
| 2026-05-05 09:57 | 22.31165 | 113.92897 | 35 ft | 9 kts | 230° |
| 2026-05-05 09:57 | 22.31114 | 113.92862 | 35 ft | 9 kts | 204° |
| 2026-05-05 09:58 | 22.31034 | 113.92821 | 35 ft | 16 kts | 205° |
| 2026-05-05 09:58 | 22.30933 | 113.92769 | 35 ft | 15 kts | 205° |
| 2026-05-05 09:58 | 22.30845 | 113.92716 | 35 ft | 14 kts | 225° |
| 2026-05-05 09:58 | 22.30809 | 113.92627 | 35 ft | 14 kts | 250° |
| 2026-05-05 09:59 | 22.30765 | 113.92492 | 35 ft | 25 kts | 250° |
| 2026-05-05 09:59 | 22.30700 | 113.92289 | 35 ft | 29 kts | 251° |
| 2026-05-05 09:59 | 22.30636 | 113.92090 | 35 ft | 27 kts | 251° |
| 2026-05-05 09:59 | 22.30578 | 113.91907 | 35 ft | 26 kts | 251° |
| 2026-05-05 10:00 | 22.30511 | 113.91700 | 35 ft | 32 kts | 250° |
| 2026-05-05 10:00 | 22.30439 | 113.91485 | 35 ft | 29 kts | 250° |
| 2026-05-05 10:00 | 22.30374 | 113.91286 | 35 ft | 27 kts | 251° |
| 2026-05-05 10:00 | 22.30317 | 113.91107 | 35 ft | 24 kts | 251° |
| 2026-05-05 10:01 | 22.30261 | 113.90932 | 35 ft | 26 kts | 251° |
| 2026-05-05 10:01 | 22.30197 | 113.90730 | 35 ft | 30 kts | 251° |
| 2026-05-05 10:01 | 22.30132 | 113.90528 | 35 ft | 26 kts | 251° |
| 2026-05-05 10:01 | 22.30078 | 113.90362 | 35 ft | 20 kts | 251° |
| 2026-05-05 10:02 | 22.30034 | 113.90227 | 35 ft | 18 kts | 251° |
| 2026-05-05 10:02 | 22.29995 | 113.90105 | 35 ft | 16 kts | 251° |
| 2026-05-05 10:02 | 22.29960 | 113.89995 | 35 ft | 17 kts | 251° |
| 2026-05-05 10:02 | 22.29908 | 113.89833 | 35 ft | 23 kts | 251° |
| 2026-05-05 10:03 | 22.29843 | 113.89733 | 35 ft | 7 kts | 197° |
| 2026-05-05 10:03 | 22.29808 | 113.89742 | 35 ft | 8 kts | 161° |
| 2026-05-05 10:03 | 22.29749 | 113.89763 | 35 ft | 5 kts | 162° |
| 2026-05-05 10:03 | 22.29748 | 113.89764 | 35 ft | 0 kts | 162° |
| 2026-05-05 10:05 | 22.29747 | 113.89764 | 35 ft | 1 kts | 162° |
| 2026-05-05 10:06 | 22.29713 | 113.89776 | 35 ft | 10 kts | 162° |
| 2026-05-05 10:06 | 22.29653 | 113.89823 | 33 ft | 8 kts | 121° |
| 2026-05-05 10:06 | 22.29645 | 113.89878 | 33 ft | 9 kts | 80° |
| 2026-05-05 10:06 | 22.29667 | 113.89946 | 33 ft | 8 kts | 70° |
| 2026-05-05 10:07 | 22.29690 | 113.90017 | 33 ft | 18 kts | 70° |
| 2026-05-05 10:07 | 22.29778 | 113.90287 | 33 ft | 59 kts | 71° |
| 2026-05-05 10:07 | 22.29957 | 113.90843 | 34 ft | 96 kts | 71° |
| 2026-05-05 10:07 | 22.30215 | 113.91647 | 35 ft | 128 kts | 71° |
| 2026-05-05 10:08 | 22.30538 | 113.92653 | 38 ft | 154 kts | 71° |
| 2026-05-05 10:08 | 22.30901 | 113.93785 | 225 ft | 164 kts | 70° |
| 2026-05-05 10:08 | 22.31322 | 113.94952 | 428 ft | 171 kts | 69° |
| 2026-05-05 10:08 | 22.31757 | 113.96161 | 785 ft | 173 kts | 69° |
| 2026-05-05 10:09 | 22.32167 | 113.97380 | 1176 ft | 170 kts | 71° |
| 2026-05-05 10:09 | 22.32572 | 113.98626 | 1382 ft | 179 kts | 73° |
| 2026-05-05 10:09 | 22.32979 | 113.99932 | 1614 ft | 188 kts | 73° |
| 2026-05-05 10:09 | 22.33397 | 114.01334 | 1746 ft | 206 kts | 73° |
| 2026-05-05 10:10 | 22.33807 | 114.02871 | 1983 ft | 219 kts | 81° |
| 2026-05-05 10:10 | 22.33871 | 114.04541 | 2280 ft | 230 kts | 98° |
| 2026-05-05 10:10 | 22.33380 | 114.06228 | 2531 ft | 243 kts | 120° |
| 2026-05-05 10:10 | 22.32276 | 114.07664 | 2847 ft | 256 kts | 140° |
| 2026-05-05 10:11 | 22.30690 | 114.08592 | 3294 ft | 265 kts | 163° |
| 2026-05-05 10:11 | 22.28837 | 114.08780 | 3808 ft | 269 kts | 182° |
| 2026-05-05 10:11 | 22.27005 | 114.08635 | 4746 ft | 257 kts | 186° |
| 2026-05-05 10:11 | 22.25208 | 114.08571 | 5244 ft | 264 kts | 180° |
| 2026-05-05 10:12 | 22.23345 | 114.08611 | 5498 ft | 278 kts | 180° |
| 2026-05-05 10:12 | 22.21397 | 114.08627 | 6061 ft | 277 kts | 181° |
| 2026-05-05 10:12 | 22.19511 | 114.08715 | 6857 ft | 268 kts | 172° |
| 2026-05-05 10:12 | 22.17742 | 114.09381 | 7298 ft | 278 kts | 150° |
| 2026-05-05 10:13 | 22.16349 | 114.10903 | 7496 ft | 298 kts | 121° |
| 2026-05-05 10:13 | 22.15739 | 114.13075 | 7788 ft | 311 kts | 97° |
| 2026-05-05 10:13 | 22.15578 | 114.15451 | 7977 ft | 324 kts | 95° |
| 2026-05-05 10:13 | 22.15458 | 114.17892 | 8008 ft | 327 kts | 95° |
| 2026-05-05 10:14 | 22.15331 | 114.20304 | 7987 ft | 315 kts | 95° |
| 2026-05-05 10:14 | 22.15201 | 114.22623 | 7997 ft | 303 kts | 95° |
| 2026-05-05 10:14 | 22.15118 | 114.24867 | 8001 ft | 300 kts | 88° |
| 2026-05-05 10:14 | 22.15431 | 114.27100 | 8009 ft | 302 kts | 78° |
| 2026-05-05 10:15 | 22.15907 | 114.29300 | 8004 ft | 301 kts | 77° |
| 2026-05-05 10:15 | 22.16393 | 114.31493 | 8006 ft | 301 kts | 78° |
| 2026-05-05 10:15 | 22.16582 | 114.32357 | 8005 ft | 300 kts | 78° |
| 2026-05-05 10:16 | 22.16921 | 114.33912 | 7994 ft | 300 kts | 78° |
| 2026-05-05 10:16 | 22.17396 | 114.36105 | 8008 ft | 300 kts | 78° |
| 2026-05-05 10:16 | 22.17869 | 114.38299 | 8010 ft | 300 kts | 78° |
| 2026-05-05 10:16 | 22.18548 | 114.40431 | 8007 ft | 301 kts | 59° |
| 2026-05-05 10:17 | 22.19956 | 114.42057 | 8009 ft | 297 kts | 29° |
| 2026-05-05 10:17 | 22.21875 | 114.42757 | 8009 ft | 292 kts | 0° |
| 2026-05-05 10:17 | 22.23886 | 114.42591 | 8072 ft | 289 kts | 347° |
| 2026-05-05 10:17 | 22.25871 | 114.42204 | 8297 ft | 292 kts | 346° |
| 2026-05-05 10:18 | 22.27200 | 114.41937 | 8589 ft | 294 kts | 346° |
| 2026-05-05 10:18 | 22.29222 | 114.41539 | 9125 ft | 295 kts | 346° |
| 2026-05-05 10:18 | 22.31250 | 114.41146 | 9620 ft | 297 kts | 346° |
| 2026-05-05 10:18 | 22.33292 | 114.40754 | 10091 ft | 299 kts | 346° |
| 2026-05-05 10:19 | 22.35335 | 114.40365 | 10553 ft | 300 kts | 346° |
| 2026-05-05 10:19 | 22.37397 | 114.39973 | 11011 ft | 301 kts | 346° |
| 2026-05-05 10:19 | 22.39465 | 114.39580 | 11440 ft | 303 kts | 346° |
| 2026-05-05 10:19 | 22.41559 | 114.39181 | 11745 ft | 310 kts | 346° |
| 2026-05-05 10:20 | 22.43715 | 114.38768 | 11987 ft | 320 kts | 345° |
| 2026-05-05 10:20 | 22.45909 | 114.38208 | 12198 ft | 326 kts | 336° |
| 2026-05-05 10:20 | 22.47950 | 114.37130 | 12393 ft | 329 kts | 321° |
| 2026-05-05 10:20 | 22.49645 | 114.35477 | 12618 ft | 331 kts | 305° |
| 2026-05-05 10:21 | 22.50862 | 114.33362 | 12841 ft | 334 kts | 290° |
| 2026-05-05 10:21 | 22.51528 | 114.30942 | 13077 ft | 339 kts | 279° |
| 2026-05-05 10:21 | 22.51943 | 114.28406 | 13311 ft | 346 kts | 278° |
| 2026-05-05 10:21 | 22.52346 | 114.25809 | 13537 ft | 354 kts | 278° |
| 2026-05-05 10:22 | 22.52765 | 114.23154 | 13739 ft | 361 kts | 278° |
| 2026-05-05 10:22 | 22.53195 | 114.20456 | 13981 ft | 367 kts | 278° |
| 2026-05-05 10:22 | 22.53705 | 114.17742 | 14313 ft | 370 kts | 284° |
| 2026-05-05 10:22 | 22.54701 | 114.15148 | 14638 ft | 377 kts | 298° |
| 2026-05-05 10:23 | 22.56324 | 114.12910 | 14946 ft | 385 kts | 313° |
| 2026-05-05 10:23 | 22.58504 | 114.11168 | 15309 ft | 392 kts | 325° |
| 2026-05-05 10:23 | 22.60880 | 114.09769 | 15657 ft | 395 kts | 329° |
| 2026-05-05 10:23 | 22.63373 | 114.08478 | 16016 ft | 398 kts | 331° |
| 2026-05-05 10:24 | 22.65937 | 114.07220 | 16383 ft | 400 kts | 331° |
| 2026-05-05 10:24 | 22.68445 | 114.05997 | 16763 ft | 401 kts | 331° |
| 2026-05-05 10:24 | 22.70981 | 114.04746 | 17172 ft | 401 kts | 330° |
| 2026-05-05 10:24 | 22.73526 | 114.03469 | 17530 ft | 403 kts | 330° |
| 2026-05-05 10:25 | 22.76060 | 114.02180 | 17872 ft | 404 kts | 330° |
| 2026-05-05 10:25 | 22.78617 | 114.00868 | 18231 ft | 406 kts | 330° |
| 2026-05-05 10:25 | 22.81167 | 113.99554 | 18525 ft | 408 kts | 330° |
| 2026-05-05 10:25 | 22.83744 | 113.98221 | 18811 ft | 411 kts | 330° |
| 2026-05-05 10:26 | 22.86325 | 113.96888 | 19116 ft | 412 kts | 330° |